sensor_id;sensor_type;location;lat;lon;timestamp;P1;durP1;ratioP1;P2;durP2;ratioP2
50988;SDS011;37008;52.210;21.112;2022-09-03T00:01:13;10.93;;;5.03;;
50988;SDS011;37008;52.210;21.112;2022-09-03T00:03:50;12.52;;;4.90;;
50988;SDS011;37008;52.210;21.112;2022-09-03T00:06:26;11.25;;;4.88;;
50988;SDS011;37008;52.210;21.112;2022-09-03T00:09:05;9.30;;;4.97;;
50988;SDS011;37008;52.210;21.112;2022-09-03T00:11:42;7.32;;;4.75;;
50988;SDS011;37008;52.210;21.112;2022-09-03T00:14:18;11.05;;;5.13;;
50988;SDS011;37008;52.210;21.112;2022-09-03T00:16:56;9.05;;;5.47;;
50988;SDS011;37008;52.210;21.112;2022-09-03T00:19:30;7.15;;;4.07;;
50988;SDS011;37008;52.210;21.112;2022-09-03T00:22:00;7.90;;;4.68;;
50988;SDS011;37008;52.210;21.112;2022-09-03T00:24:33;13.27;;;4.57;;
50988;SDS011;37008;52.210;21.112;2022-09-03T00:27:02;10.32;;;4.90;;
50988;SDS011;37008;52.210;21.112;2022-09-03T00:29:38;8.40;;;4.40;;
50988;SDS011;37008;52.210;21.112;2022-09-03T00:32:12;11.13;;;5.25;;
50988;SDS011;37008;52.210;21.112;2022-09-03T00:34:44;10.15;;;4.68;;
50988;SDS011;37008;52.210;21.112;2022-09-03T00:37:15;10.32;;;4.75;;
50988;SDS011;37008;52.210;21.112;2022-09-03T00:39:40;8.52;;;4.70;;
50988;SDS011;37008;52.210;21.112;2022-09-03T00:44:56;15.15;;;6.05;;
50988;SDS011;37008;52.210;21.112;2022-09-03T00:50:04;11.27;;;5.07;;
50988;SDS011;37008;52.210;21.112;2022-09-03T00:52:44;10.10;;;5.00;;
50988;SDS011;37008;52.210;21.112;2022-09-03T01:00:49;14.88;;;6.07;;
50988;SDS011;37008;52.210;21.112;2022-09-03T01:17:00;8.07;;;5.00;;
50988;SDS011;37008;52.210;21.112;2022-09-03T01:25:15;10.90;;;5.35;;
50988;SDS011;37008;52.210;21.112;2022-09-03T01:28:07;16.17;;;4.78;;
50988;SDS011;37008;52.210;21.112;2022-09-03T01:33:54;12.30;;;4.97;;
50988;SDS011;37008;52.210;21.112;2022-09-03T01:50:27;13.27;;;5.70;;
50988;SDS011;37008;52.210;21.112;2022-09-03T01:53:02;8.05;;;5.32;;
50988;SDS011;37008;52.210;21.112;2022-09-03T01:55:43;12.40;;;6.28;;
50988;SDS011;37008;52.210;21.112;2022-09-03T01:58:36;9.73;;;5.53;;
50988;SDS011;37008;52.210;21.112;2022-09-03T02:01:26;10.65;;;5.00;;
50988;SDS011;37008;52.210;21.112;2022-09-03T02:03:57;9.30;;;5.20;;
50988;SDS011;37008;52.210;21.112;2022-09-03T02:06:26;9.57;;;4.40;;
50988;SDS011;37008;52.210;21.112;2022-09-03T02:08:56;9.95;;;5.30;;
50988;SDS011;37008;52.210;21.112;2022-09-03T02:11:22;13.18;;;4.78;;
50988;SDS011;37008;52.210;21.112;2022-09-03T02:13:49;13.25;;;5.28;;
50988;SDS011;37008;52.210;21.112;2022-09-03T02:16:22;11.70;;;5.07;;
50988;SDS011;37008;52.210;21.112;2022-09-03T02:19:01;11.65;;;5.35;;
50988;SDS011;37008;52.210;21.112;2022-09-03T02:21:35;9.38;;;4.75;;
50988;SDS011;37008;52.210;21.112;2022-09-03T02:24:04;10.82;;;5.35;;
50988;SDS011;37008;52.210;21.112;2022-09-03T02:26:32;10.82;;;5.63;;
50988;SDS011;37008;52.210;21.112;2022-09-03T02:28:58;8.05;;;4.32;;
50988;SDS011;37008;52.210;21.112;2022-09-03T02:31:26;9.50;;;5.05;;
50988;SDS011;37008;52.210;21.112;2022-09-03T02:33:52;9.77;;;5.22;;
50988;SDS011;37008;52.210;21.112;2022-09-03T02:36:23;8.10;;;4.78;;
50988;SDS011;37008;52.210;21.112;2022-09-03T02:38:51;7.93;;;4.80;;
50988;SDS011;37008;52.210;21.112;2022-09-03T02:41:17;10.98;;;5.35;;
50988;SDS011;37008;52.210;21.112;2022-09-03T02:43:49;13.18;;;5.68;;
50988;SDS011;37008;52.210;21.112;2022-09-03T02:46:22;8.75;;;4.75;;
50988;SDS011;37008;52.210;21.112;2022-09-03T02:48:51;10.98;;;4.80;;
50988;SDS011;37008;52.210;21.112;2022-09-03T02:51:18;8.27;;;4.82;;
50988;SDS011;37008;52.210;21.112;2022-09-03T02:53:44;8.70;;;5.32;;
50988;SDS011;37008;52.210;21.112;2022-09-03T02:56:10;9.43;;;4.97;;
50988;SDS011;37008;52.210;21.112;2022-09-03T02:58:35;11.82;;;4.90;;
50988;SDS011;37008;52.210;21.112;2022-09-03T03:01:01;13.98;;;5.50;;
50988;SDS011;37008;52.210;21.112;2022-09-03T03:03:28;10.45;;;5.07;;
50988;SDS011;37008;52.210;21.112;2022-09-03T03:05:55;8.90;;;4.93;;
50988;SDS011;37008;52.210;21.112;2022-09-03T03:08:24;8.88;;;4.90;;
50988;SDS011;37008;52.210;21.112;2022-09-03T03:10:52;8.88;;;4.25;;
50988;SDS011;37008;52.210;21.112;2022-09-03T03:13:22;14.63;;;4.85;;
50988;SDS011;37008;52.210;21.112;2022-09-03T03:15:49;10.20;;;5.18;;
50988;SDS011;37008;52.210;21.112;2022-09-03T03:18:14;14.93;;;4.75;;
50988;SDS011;37008;52.210;21.112;2022-09-03T03:20:41;10.60;;;4.80;;
50988;SDS011;37008;52.210;21.112;2022-09-03T03:23:08;9.32;;;5.40;;
50988;SDS011;37008;52.210;21.112;2022-09-03T03:25:35;11.77;;;5.47;;
50988;SDS011;37008;52.210;21.112;2022-09-03T03:28:02;11.13;;;5.28;;
50988;SDS011;37008;52.210;21.112;2022-09-03T03:30:29;12.40;;;6.05;;
50988;SDS011;37008;52.210;21.112;2022-09-03T03:32:55;7.80;;;5.05;;
50988;SDS011;37008;52.210;21.112;2022-09-03T03:35:21;7.72;;;4.97;;
50988;SDS011;37008;52.210;21.112;2022-09-03T03:37:47;11.60;;;4.40;;
50988;SDS011;37008;52.210;21.112;2022-09-03T03:40:13;11.48;;;4.70;;
50988;SDS011;37008;52.210;21.112;2022-09-03T03:42:39;12.65;;;5.13;;
50988;SDS011;37008;52.210;21.112;2022-09-03T03:45:05;9.05;;;5.32;;
50988;SDS011;37008;52.210;21.112;2022-09-03T03:47:32;10.23;;;4.43;;
50988;SDS011;37008;52.210;21.112;2022-09-03T03:49:58;15.60;;;5.15;;
50988;SDS011;37008;52.210;21.112;2022-09-03T03:52:24;12.32;;;5.68;;
50988;SDS011;37008;52.210;21.112;2022-09-03T03:54:51;8.88;;;5.13;;
50988;SDS011;37008;52.210;21.112;2022-09-03T03:57:18;13.52;;;4.07;;
50988;SDS011;37008;52.210;21.112;2022-09-03T03:59:44;8.38;;;4.57;;
50988;SDS011;37008;52.210;21.112;2022-09-03T04:02:11;10.07;;;4.80;;
50988;SDS011;37008;52.210;21.112;2022-09-03T04:04:37;10.40;;;4.47;;
50988;SDS011;37008;52.210;21.112;2022-09-03T04:07:02;9.60;;;4.63;;
50988;SDS011;37008;52.210;21.112;2022-09-03T04:09:28;13.38;;;5.97;;
50988;SDS011;37008;52.210;21.112;2022-09-03T04:11:54;7.85;;;4.60;;
50988;SDS011;37008;52.210;21.112;2022-09-03T04:14:21;9.32;;;5.05;;
50988;SDS011;37008;52.210;21.112;2022-09-03T04:16:47;13.43;;;4.32;;
50988;SDS011;37008;52.210;21.112;2022-09-03T04:19:15;7.85;;;4.15;;
50988;SDS011;37008;52.210;21.112;2022-09-03T04:21:41;11.07;;;4.75;;
50988;SDS011;37008;52.210;21.112;2022-09-03T04:24:06;10.77;;;4.90;;
50988;SDS011;37008;52.210;21.112;2022-09-03T04:26:32;14.05;;;5.20;;
50988;SDS011;37008;52.210;21.112;2022-09-03T04:28:59;11.35;;;4.85;;
50988;SDS011;37008;52.210;21.112;2022-09-03T04:31:26;10.52;;;4.95;;
50988;SDS011;37008;52.210;21.112;2022-09-03T04:33:52;9.85;;;4.82;;
50988;SDS011;37008;52.210;21.112;2022-09-03T04:36:19;12.52;;;4.68;;
50988;SDS011;37008;52.210;21.112;2022-09-03T04:38:47;9.75;;;4.88;;
50988;SDS011;37008;52.210;21.112;2022-09-03T04:41:18;7.55;;;4.38;;
50988;SDS011;37008;52.210;21.112;2022-09-03T04:43:46;14.15;;;4.47;;
50988;SDS011;37008;52.210;21.112;2022-09-03T04:46:13;7.30;;;5.20;;
50988;SDS011;37008;52.210;21.112;2022-09-03T04:48:40;8.85;;;4.75;;
50988;SDS011;37008;52.210;21.112;2022-09-03T04:51:06;8.20;;;4.53;;
50988;SDS011;37008;52.210;21.112;2022-09-03T04:53:38;9.07;;;4.45;;
50988;SDS011;37008;52.210;21.112;2022-09-03T04:56:13;11.95;;;4.35;;
50988;SDS011;37008;52.210;21.112;2022-09-03T04:58:40;6.57;;;4.00;;
50988;SDS011;37008;52.210;21.112;2022-09-03T05:01:08;7.72;;;4.10;;
50988;SDS011;37008;52.210;21.112;2022-09-03T05:03:40;8.00;;;4.57;;
50988;SDS011;37008;52.210;21.112;2022-09-03T05:06:06;9.13;;;4.10;;
50988;SDS011;37008;52.210;21.112;2022-09-03T05:08:32;10.55;;;4.13;;
50988;SDS011;37008;52.210;21.112;2022-09-03T05:11:00;7.20;;;3.80;;
50988;SDS011;37008;52.210;21.112;2022-09-03T05:13:27;11.88;;;3.50;;
50988;SDS011;37008;52.210;21.112;2022-09-03T05:15:59;9.20;;;3.80;;
50988;SDS011;37008;52.210;21.112;2022-09-03T05:18:26;10.98;;;4.03;;
50988;SDS011;37008;52.210;21.112;2022-09-03T05:21:05;6.88;;;3.78;;
50988;SDS011;37008;52.210;21.112;2022-09-03T05:23:37;5.90;;;3.38;;
50988;SDS011;37008;52.210;21.112;2022-09-03T05:26:05;15.23;;;4.07;;
50988;SDS011;37008;52.210;21.112;2022-09-03T05:28:36;6.20;;;3.40;;
50988;SDS011;37008;52.210;21.112;2022-09-03T05:31:07;10.95;;;3.45;;
50988;SDS011;37008;52.210;21.112;2022-09-03T05:33:33;15.02;;;4.30;;
50988;SDS011;37008;52.210;21.112;2022-09-03T05:36:04;8.02;;;3.42;;
50988;SDS011;37008;52.210;21.112;2022-09-03T05:38:32;10.07;;;3.63;;
50988;SDS011;37008;52.210;21.112;2022-09-03T05:41:01;10.07;;;3.17;;
50988;SDS011;37008;52.210;21.112;2022-09-03T05:43:28;9.57;;;3.25;;
50988;SDS011;37008;52.210;21.112;2022-09-03T05:45:58;6.00;;;3.33;;
50988;SDS011;37008;52.210;21.112;2022-09-03T05:48:28;6.68;;;3.08;;
50988;SDS011;37008;52.210;21.112;2022-09-03T05:50:58;6.40;;;3.08;;
50988;SDS011;37008;52.210;21.112;2022-09-03T05:53:43;6.70;;;3.33;;
50988;SDS011;37008;52.210;21.112;2022-09-03T05:56:11;6.68;;;3.00;;
50988;SDS011;37008;52.210;21.112;2022-09-03T05:58:42;8.32;;;3.42;;
50988;SDS011;37008;52.210;21.112;2022-09-03T06:01:16;7.65;;;3.55;;
50988;SDS011;37008;52.210;21.112;2022-09-03T06:03:47;5.35;;;2.92;;
50988;SDS011;37008;52.210;21.112;2022-09-03T06:06:22;6.60;;;3.55;;
50988;SDS011;37008;52.210;21.112;2022-09-03T06:08:52;7.63;;;3.58;;
50988;SDS011;37008;52.210;21.112;2022-09-03T06:11:23;13.27;;;3.10;;
50988;SDS011;37008;52.210;21.112;2022-09-03T06:13:52;5.28;;;2.70;;
50988;SDS011;37008;52.210;21.112;2022-09-03T06:16:21;10.77;;;2.97;;
50988;SDS011;37008;52.210;21.112;2022-09-03T06:18:48;12.63;;;3.42;;
50988;SDS011;37008;52.210;21.112;2022-09-03T06:21:13;11.70;;;3.28;;
50988;SDS011;37008;52.210;21.112;2022-09-03T06:23:40;9.38;;;3.40;;
50988;SDS011;37008;52.210;21.112;2022-09-03T06:26:09;6.18;;;3.35;;
50988;SDS011;37008;52.210;21.112;2022-09-03T06:28:37;9.68;;;3.40;;
50988;SDS011;37008;52.210;21.112;2022-09-03T06:31:05;7.32;;;2.63;;
50988;SDS011;37008;52.210;21.112;2022-09-03T06:33:33;5.22;;;2.95;;
50988;SDS011;37008;52.210;21.112;2022-09-03T06:36:00;5.00;;;2.70;;
50988;SDS011;37008;52.210;21.112;2022-09-03T06:38:28;6.03;;;2.55;;
50988;SDS011;37008;52.210;21.112;2022-09-03T06:40:57;5.13;;;2.60;;
50988;SDS011;37008;52.210;21.112;2022-09-03T06:43:30;8.75;;;2.80;;
50988;SDS011;37008;52.210;21.112;2022-09-03T06:48:25;5.97;;;2.88;;
50988;SDS011;37008;52.210;21.112;2022-09-03T06:53:49;6.00;;;2.75;;
50988;SDS011;37008;52.210;21.112;2022-09-03T06:56:18;6.03;;;2.40;;
50988;SDS011;37008;52.210;21.112;2022-09-03T06:58:50;7.85;;;2.90;;
50988;SDS011;37008;52.210;21.112;2022-09-03T07:01:21;4.07;;;2.45;;
50988;SDS011;37008;52.210;21.112;2022-09-03T07:03:51;5.80;;;2.60;;
50988;SDS011;37008;52.210;21.112;2022-09-03T07:06:22;4.38;;;2.63;;
50988;SDS011;37008;52.210;21.112;2022-09-03T07:08:49;4.68;;;2.30;;
50988;SDS011;37008;52.210;21.112;2022-09-03T07:11:16;14.90;;;2.65;;
50988;SDS011;37008;52.210;21.112;2022-09-03T07:13:44;9.30;;;2.53;;
50988;SDS011;37008;52.210;21.112;2022-09-03T07:18:39;5.32;;;2.20;;
50988;SDS011;37008;52.210;21.112;2022-09-03T07:21:08;5.93;;;2.53;;
50988;SDS011;37008;52.210;21.112;2022-09-03T07:23:37;6.90;;;2.03;;
50988;SDS011;37008;52.210;21.112;2022-09-03T07:26:04;5.95;;;2.20;;
50988;SDS011;37008;52.210;21.112;2022-09-03T07:28:33;5.25;;;2.78;;
50988;SDS011;37008;52.210;21.112;2022-09-03T07:31:01;5.85;;;2.42;;
50988;SDS011;37008;52.210;21.112;2022-09-03T07:33:29;5.55;;;2.40;;
50988;SDS011;37008;52.210;21.112;2022-09-03T07:35:55;11.30;;;4.18;;
50988;SDS011;37008;52.210;21.112;2022-09-03T07:38:26;5.57;;;1.80;;
50988;SDS011;37008;52.210;21.112;2022-09-03T07:40:58;3.50;;;2.05;;
50988;SDS011;37008;52.210;21.112;2022-09-03T07:43:26;6.32;;;2.17;;
50988;SDS011;37008;52.210;21.112;2022-09-03T07:45:53;4.85;;;2.05;;
50988;SDS011;37008;52.210;21.112;2022-09-03T07:48:20;5.22;;;2.15;;
50988;SDS011;37008;52.210;21.112;2022-09-03T07:50:45;2.75;;;1.40;;
50988;SDS011;37008;52.210;21.112;2022-09-03T07:53:12;8.07;;;1.63;;
50988;SDS011;37008;52.210;21.112;2022-09-03T07:55:37;4.78;;;1.98;;
50988;SDS011;37008;52.210;21.112;2022-09-03T07:58:04;4.53;;;2.28;;
50988;SDS011;37008;52.210;21.112;2022-09-03T08:00:29;9.10;;;2.08;;
50988;SDS011;37008;52.210;21.112;2022-09-03T08:02:57;10.73;;;2.10;;
50988;SDS011;37008;52.210;21.112;2022-09-03T08:05:30;6.35;;;2.00;;
50988;SDS011;37008;52.210;21.112;2022-09-03T08:08:00;2.97;;;1.67;;
50988;SDS011;37008;52.210;21.112;2022-09-03T08:10:29;3.83;;;1.70;;
50988;SDS011;37008;52.210;21.112;2022-09-03T08:12:59;5.82;;;2.00;;
50988;SDS011;37008;52.210;21.112;2022-09-03T08:15:29;3.30;;;1.95;;
50988;SDS011;37008;52.210;21.112;2022-09-03T08:17:55;3.88;;;1.90;;
50988;SDS011;37008;52.210;21.112;2022-09-03T08:20:21;4.65;;;1.95;;
50988;SDS011;37008;52.210;21.112;2022-09-03T08:22:47;7.97;;;1.88;;
50988;SDS011;37008;52.210;21.112;2022-09-03T08:25:13;4.22;;;1.63;;
50988;SDS011;37008;52.210;21.112;2022-09-03T08:27:38;4.82;;;1.98;;
50988;SDS011;37008;52.210;21.112;2022-09-03T08:30:04;5.03;;;1.60;;
50988;SDS011;37008;52.210;21.112;2022-09-03T08:32:36;4.53;;;2.00;;
50988;SDS011;37008;52.210;21.112;2022-09-03T08:35:03;4.13;;;1.67;;
50988;SDS011;37008;52.210;21.112;2022-09-03T08:37:30;4.72;;;1.60;;
50988;SDS011;37008;52.210;21.112;2022-09-03T08:39:56;3.08;;;1.50;;
50988;SDS011;37008;52.210;21.112;2022-09-03T08:45:08;4.10;;;2.05;;
50988;SDS011;37008;52.210;21.112;2022-09-03T08:47:42;8.57;;;1.45;;
50988;SDS011;37008;52.210;21.112;2022-09-03T08:56:06;2.83;;;1.83;;
50988;SDS011;37008;52.210;21.112;2022-09-03T08:58:35;2.50;;;1.58;;
50988;SDS011;37008;52.210;21.112;2022-09-03T09:08:49;5.45;;;1.85;;
50988;SDS011;37008;52.210;21.112;2022-09-03T09:22:39;2.60;;;1.55;;
50988;SDS011;37008;52.210;21.112;2022-09-03T09:25:10;3.65;;;1.52;;
50988;SDS011;37008;52.210;21.112;2022-09-03T09:27:46;3.30;;;1.58;;
50988;SDS011;37008;52.210;21.112;2022-09-03T09:30:16;6.43;;;1.60;;
50988;SDS011;37008;52.210;21.112;2022-09-03T09:32:43;5.90;;;1.70;;
50988;SDS011;37008;52.210;21.112;2022-09-03T09:35:11;4.25;;;1.50;;
50988;SDS011;37008;52.210;21.112;2022-09-03T09:37:49;4.40;;;1.35;;
50988;SDS011;37008;52.210;21.112;2022-09-03T09:40:28;4.38;;;1.67;;
50988;SDS011;37008;52.210;21.112;2022-09-03T09:43:02;5.53;;;1.60;;
50988;SDS011;37008;52.210;21.112;2022-09-03T09:45:31;4.32;;;1.60;;
50988;SDS011;37008;52.210;21.112;2022-09-03T09:47:59;2.55;;;1.50;;
50988;SDS011;37008;52.210;21.112;2022-09-03T09:50:27;2.33;;;1.33;;
50988;SDS011;37008;52.210;21.112;2022-09-03T09:53:02;5.03;;;1.60;;
50988;SDS011;37008;52.210;21.112;2022-09-03T09:55:47;2.30;;;1.60;;
50988;SDS011;37008;52.210;21.112;2022-09-03T09:58:20;2.78;;;1.40;;
50988;SDS011;37008;52.210;21.112;2022-09-03T10:00:58;6.63;;;1.33;;
50988;SDS011;37008;52.210;21.112;2022-09-03T10:03:32;5.28;;;1.50;;
50988;SDS011;37008;52.210;21.112;2022-09-03T10:06:08;3.17;;;1.30;;
50988;SDS011;37008;52.210;21.112;2022-09-03T10:09:06;3.45;;;1.50;;
50988;SDS011;37008;52.210;21.112;2022-09-03T10:11:43;2.65;;;1.38;;
50988;SDS011;37008;52.210;21.112;2022-09-03T10:14:19;4.25;;;1.55;;
50988;SDS011;37008;52.210;21.112;2022-09-03T10:17:09;10.02;;;2.08;;
50988;SDS011;37008;52.210;21.112;2022-09-03T10:22:49;2.63;;;1.48;;
50988;SDS011;37008;52.210;21.112;2022-09-03T10:25:21;4.63;;;1.50;;
50988;SDS011;37008;52.210;21.112;2022-09-03T10:27:50;3.05;;;1.23;;
50988;SDS011;37008;52.210;21.112;2022-09-03T10:30:18;3.70;;;1.10;;
50988;SDS011;37008;52.210;21.112;2022-09-03T10:32:46;4.78;;;1.23;;
50988;SDS011;37008;52.210;21.112;2022-09-03T10:35:42;5.17;;;1.10;;
50988;SDS011;37008;52.210;21.112;2022-09-03T10:38:22;2.10;;;1.25;;
50988;SDS011;37008;52.210;21.112;2022-09-03T10:40:51;4.10;;;1.05;;
50988;SDS011;37008;52.210;21.112;2022-09-03T10:43:47;6.05;;;1.45;;
50988;SDS011;37008;52.210;21.112;2022-09-03T10:46:48;2.78;;;1.00;;
50988;SDS011;37008;52.210;21.112;2022-09-03T10:49:44;4.97;;;1.00;;
50988;SDS011;37008;52.210;21.112;2022-09-03T10:54:53;2.63;;;1.10;;
50988;SDS011;37008;52.210;21.112;2022-09-03T11:00:23;2.47;;;0.77;;
50988;SDS011;37008;52.210;21.112;2022-09-03T11:08:36;3.70;;;0.80;;
50988;SDS011;37008;52.210;21.112;2022-09-03T11:13:44;5.78;;;0.90;;
50988;SDS011;37008;52.210;21.112;2022-09-03T11:16:25;7.70;;;1.00;;
50988;SDS011;37008;52.210;21.112;2022-09-03T11:18:57;4.22;;;1.10;;
50988;SDS011;37008;52.210;21.112;2022-09-03T11:21:29;2.65;;;1.08;;
50988;SDS011;37008;52.210;21.112;2022-09-03T11:26:37;1.92;;;1.13;;
50988;SDS011;37008;52.210;21.112;2022-09-03T11:32:04;3.10;;;0.90;;
50988;SDS011;37008;52.210;21.112;2022-09-03T11:34:51;2.22;;;0.90;;
50988;SDS011;37008;52.210;21.112;2022-09-03T11:40:31;6.05;;;1.20;;
50988;SDS011;37008;52.210;21.112;2022-09-03T11:42:41;1.83;;;1.05;;
50988;SDS011;37008;52.210;21.112;2022-09-03T11:45:12;2.92;;;1.00;;
50988;SDS011;37008;52.210;21.112;2022-09-03T11:47:51;4.05;;;1.00;;
50988;SDS011;37008;52.210;21.112;2022-09-03T11:52:44;2.10;;;1.10;;
50988;SDS011;37008;52.210;21.112;2022-09-03T11:55:11;3.78;;;1.00;;
50988;SDS011;37008;52.210;21.112;2022-09-03T11:57:48;3.35;;;1.92;;
50988;SDS011;37008;52.210;21.112;2022-09-03T12:00:14;1.67;;;0.90;;
50988;SDS011;37008;52.210;21.112;2022-09-03T12:03:00;1.95;;;1.00;;
50988;SDS011;37008;52.210;21.112;2022-09-03T12:05:31;3.50;;;1.08;;
50988;SDS011;37008;52.210;21.112;2022-09-03T12:19:58;3.50;;;0.85;;
50988;SDS011;37008;52.210;21.112;2022-09-03T12:22:18;1.70;;;0.98;;
50988;SDS011;37008;52.210;21.112;2022-09-03T12:24:46;4.15;;;1.00;;
50988;SDS011;37008;52.210;21.112;2022-09-03T12:27:19;2.28;;;1.08;;
50988;SDS011;37008;52.210;21.112;2022-09-03T12:29:54;2.08;;;0.98;;
50988;SDS011;37008;52.210;21.112;2022-09-03T12:32:24;7.30;;;1.30;;
50988;SDS011;37008;52.210;21.112;2022-09-03T12:34:51;2.97;;;0.90;;
50988;SDS011;37008;52.210;21.112;2022-09-03T12:37:19;7.25;;;1.10;;
50988;SDS011;37008;52.210;21.112;2022-09-03T12:39:54;3.25;;;1.13;;
50988;SDS011;37008;52.210;21.112;2022-09-03T12:42:25;4.32;;;1.10;;
50988;SDS011;37008;52.210;21.112;2022-09-03T12:44:53;4.93;;;1.20;;
50988;SDS011;37008;52.210;21.112;2022-09-03T12:47:20;3.47;;;1.15;;
50988;SDS011;37008;52.210;21.112;2022-09-03T12:49:48;8.50;;;1.45;;
50988;SDS011;37008;52.210;21.112;2022-09-03T12:52:29;2.70;;;1.30;;
50988;SDS011;37008;52.210;21.112;2022-09-03T12:54:59;5.85;;;1.17;;
50988;SDS011;37008;52.210;21.112;2022-09-03T12:57:44;3.22;;;1.30;;
50988;SDS011;37008;52.210;21.112;2022-09-03T13:00:14;3.95;;;1.20;;
50988;SDS011;37008;52.210;21.112;2022-09-03T13:02:52;3.92;;;1.30;;
50988;SDS011;37008;52.210;21.112;2022-09-03T13:05:24;2.17;;;1.00;;
50988;SDS011;37008;52.210;21.112;2022-09-03T13:08:00;2.33;;;0.98;;
50988;SDS011;37008;52.210;21.112;2022-09-03T13:10:32;1.42;;;0.90;;
50988;SDS011;37008;52.210;21.112;2022-09-03T13:13:03;1.73;;;1.10;;
50988;SDS011;37008;52.210;21.112;2022-09-03T13:24:06;3.50;;;1.10;;
50988;SDS011;37008;52.210;21.112;2022-09-03T13:32:32;5.93;;;1.27;;
50988;SDS011;37008;52.210;21.112;2022-09-03T13:40:57;3.22;;;1.40;;
50988;SDS011;37008;52.210;21.112;2022-09-03T13:43:43;3.03;;;1.20;;
50988;SDS011;37008;52.210;21.112;2022-09-03T13:46:11;3.60;;;1.13;;
50988;SDS011;37008;52.210;21.112;2022-09-03T13:49:02;2.58;;;1.00;;
50988;SDS011;37008;52.210;21.112;2022-09-03T13:51:59;4.55;;;1.10;;
50988;SDS011;37008;52.210;21.112;2022-09-03T13:54:36;1.58;;;1.00;;
50988;SDS011;37008;52.210;21.112;2022-09-03T13:57:08;3.85;;;1.10;;
50988;SDS011;37008;52.210;21.112;2022-09-03T14:10:24;3.47;;;1.02;;
50988;SDS011;37008;52.210;21.112;2022-09-03T14:15:42;3.25;;;1.13;;
50988;SDS011;37008;52.210;21.112;2022-09-03T14:18:45;1.63;;;1.00;;
50988;SDS011;37008;52.210;21.112;2022-09-03T14:21:26;8.00;;;1.55;;
50988;SDS011;37008;52.210;21.112;2022-09-03T14:24:19;2.70;;;1.10;;
50988;SDS011;37008;52.210;21.112;2022-09-03T14:26:53;1.98;;;1.08;;
50988;SDS011;37008;52.210;21.112;2022-09-03T14:29:28;4.55;;;1.10;;
50988;SDS011;37008;52.210;21.112;2022-09-03T14:40:18;4.28;;;1.10;;
50988;SDS011;37008;52.210;21.112;2022-09-03T14:43:00;5.95;;;1.10;;
50988;SDS011;37008;52.210;21.112;2022-09-03T14:48:51;6.88;;;1.33;;
50988;SDS011;37008;52.210;21.112;2022-09-03T14:59:34;5.38;;;1.08;;
50988;SDS011;37008;52.210;21.112;2022-09-03T15:07:54;5.78;;;1.23;;
50988;SDS011;37008;52.210;21.112;2022-09-03T15:19:31;4.18;;;1.00;;
50988;SDS011;37008;52.210;21.112;2022-09-03T15:22:41;2.15;;;1.35;;
50988;SDS011;37008;52.210;21.112;2022-09-03T15:28:32;3.60;;;1.10;;
50988;SDS011;37008;52.210;21.112;2022-09-03T15:36:43;2.85;;;1.27;;
50988;SDS011;37008;52.210;21.112;2022-09-03T15:39:15;4.55;;;1.25;;
50988;SDS011;37008;52.210;21.112;2022-09-03T15:41:52;2.60;;;1.30;;
50988;SDS011;37008;52.210;21.112;2022-09-03T15:44:25;7.78;;;1.20;;
50988;SDS011;37008;52.210;21.112;2022-09-03T15:46:59;2.17;;;1.00;;
50988;SDS011;37008;52.210;21.112;2022-09-03T15:59:48;1.60;;;1.08;;
50988;SDS011;37008;52.210;21.112;2022-09-03T16:02:31;2.05;;;1.05;;
50988;SDS011;37008;52.210;21.112;2022-09-03T16:05:06;4.72;;;1.27;;
50988;SDS011;37008;52.210;21.112;2022-09-03T16:07:40;3.67;;;1.33;;
50988;SDS011;37008;52.210;21.112;2022-09-03T16:10:20;4.47;;;1.50;;
50988;SDS011;37008;52.210;21.112;2022-09-03T16:13:03;3.20;;;1.52;;
50988;SDS011;37008;52.210;21.112;2022-09-03T16:15:47;2.22;;;1.23;;
50988;SDS011;37008;52.210;21.112;2022-09-03T16:20:53;4.15;;;1.40;;
50988;SDS011;37008;52.210;21.112;2022-09-03T16:23:31;5.10;;;1.48;;
50988;SDS011;37008;52.210;21.112;2022-09-03T16:26:07;5.05;;;1.50;;
50988;SDS011;37008;52.210;21.112;2022-09-03T16:28:54;4.53;;;2.00;;
50988;SDS011;37008;52.210;21.112;2022-09-03T16:31:37;3.50;;;1.88;;
50988;SDS011;37008;52.210;21.112;2022-09-03T16:34:35;5.60;;;1.95;;
50988;SDS011;37008;52.210;21.112;2022-09-03T16:37:27;5.90;;;1.98;;
50988;SDS011;37008;52.210;21.112;2022-09-03T16:42:39;5.32;;;1.70;;
50988;SDS011;37008;52.210;21.112;2022-09-03T17:19:55;5.32;;;2.20;;
50988;SDS011;37008;52.210;21.112;2022-09-03T17:24:53;8.60;;;2.03;;
50988;SDS011;37008;52.210;21.112;2022-09-03T17:48:59;6.82;;;2.78;;
50988;SDS011;37008;52.210;21.112;2022-09-03T18:00:08;11.90;;;4.40;;
50988;SDS011;37008;52.210;21.112;2022-09-03T18:02:44;76.00;;;40.53;;
50988;SDS011;37008;52.210;21.112;2022-09-03T18:05:29;59.63;;;29.92;;
50988;SDS011;37008;52.210;21.112;2022-09-03T18:13:15;210.05;;;131.45;;
50988;SDS011;37008;52.210;21.112;2022-09-03T18:16:18;70.65;;;41.67;;
50988;SDS011;37008;52.210;21.112;2022-09-03T18:19:02;56.17;;;34.20;;
50988;SDS011;37008;52.210;21.112;2022-09-03T18:21:32;25.85;;;17.00;;
50988;SDS011;37008;52.210;21.112;2022-09-03T18:27:26;28.33;;;14.40;;
50988;SDS011;37008;52.210;21.112;2022-09-03T18:30:26;19.23;;;11.35;;
50988;SDS011;37008;52.210;21.112;2022-09-03T18:33:10;21.95;;;11.32;;
50988;SDS011;37008;52.210;21.112;2022-09-03T18:35:54;19.25;;;9.73;;
50988;SDS011;37008;52.210;21.112;2022-09-03T18:38:41;17.15;;;10.05;;
50988;SDS011;37008;52.210;21.112;2022-09-03T18:44:26;13.75;;;7.18;;
50988;SDS011;37008;52.210;21.112;2022-09-03T18:50:42;15.75;;;7.90;;
50988;SDS011;37008;52.210;21.112;2022-09-03T18:56:24;16.33;;;5.82;;
50988;SDS011;37008;52.210;21.112;2022-09-03T19:02:14;15.52;;;6.82;;
50988;SDS011;37008;52.210;21.112;2022-09-03T19:07:56;11.02;;;6.90;;
50988;SDS011;37008;52.210;21.112;2022-09-03T19:14:01;30.25;;;11.18;;
50988;SDS011;37008;52.210;21.112;2022-09-03T19:20:30;23.30;;;13.70;;
50988;SDS011;37008;52.210;21.112;2022-09-03T19:23:16;21.63;;;13.63;;
50988;SDS011;37008;52.210;21.112;2022-09-03T19:26:14;30.25;;;17.35;;
50988;SDS011;37008;52.210;21.112;2022-09-03T19:32:42;30.38;;;15.93;;
50988;SDS011;37008;52.210;21.112;2022-09-03T19:35:42;29.05;;;15.82;;
50988;SDS011;37008;52.210;21.112;2022-09-03T19:41:37;31.17;;;14.07;;
50988;SDS011;37008;52.210;21.112;2022-09-03T19:44:33;22.35;;;14.30;;
50988;SDS011;37008;52.210;21.112;2022-09-03T19:47:59;25.92;;;15.13;;
50988;SDS011;37008;52.210;21.112;2022-09-03T19:54:04;44.35;;;24.77;;
50988;SDS011;37008;52.210;21.112;2022-09-03T19:56:50;38.60;;;20.30;;
50988;SDS011;37008;52.210;21.112;2022-09-03T19:59:38;33.60;;;18.73;;
50988;SDS011;37008;52.210;21.112;2022-09-03T20:02:23;48.13;;;28.02;;
50988;SDS011;37008;52.210;21.112;2022-09-03T20:05:26;47.08;;;23.63;;
50988;SDS011;37008;52.210;21.112;2022-09-03T20:08:12;50.83;;;25.67;;
50988;SDS011;37008;52.210;21.112;2022-09-03T20:10:58;71.07;;;44.00;;
50988;SDS011;37008;52.210;21.112;2022-09-03T20:13:26;76.88;;;46.80;;
50988;SDS011;37008;52.210;21.112;2022-09-03T20:16:12;78.13;;;47.00;;
50988;SDS011;37008;52.210;21.112;2022-09-03T20:18:55;80.10;;;46.33;;
50988;SDS011;37008;52.210;21.112;2022-09-03T20:21:32;71.30;;;37.53;;
50988;SDS011;37008;52.210;21.112;2022-09-03T20:24:20;49.60;;;27.50;;
50988;SDS011;37008;52.210;21.112;2022-09-03T20:40:52;21.20;;;11.18;;
50988;SDS011;37008;52.210;21.112;2022-09-03T20:43:44;27.42;;;12.48;;